Alvord, Iowa
Current Conditions -  °F | °C
As of 5:34 PM on Friday 19 Dec 2014 (Local Time) from KLYV Reporting Station
Overcast Overcast  
Wind Chill: 23°   Ceiling: 800
Heat Index: 32°   Visibility: 7mi
Dew Point: 30°   Wind: 12mph
Humidity: 93%   Direction: 190°S
Pressure: 30.11"   Gusts: NA
Location:  43.34°N, 96.3°W
Report Text: KLYV 192334Z AUTO 19010KT 7SM OVC008 00/M01 A3011 RMK AO2
Loading
Personal Weather Stations






























Interactive Weather Map New forecast layout! Learn more

10-Day Weather Forecast

Advertisements
Track Severe Weather on mobile